createdAt,value
2022-09-09T00:01:33.182Z,15.10
2022-09-09T00:04:12.637Z,15.00
2022-09-09T00:06:51.941Z,15.00
2022-09-09T00:09:23.550Z,14.90
2022-09-09T00:11:57.673Z,14.90
2022-09-09T00:14:34.750Z,14.80
2022-09-09T00:17:15.296Z,14.90
2022-09-09T00:19:51.646Z,14.90
2022-09-09T00:22:24.096Z,14.80
2022-09-09T00:24:55.960Z,14.80
2022-09-09T00:27:31.607Z,14.80
2022-09-09T00:30:03.088Z,14.80
2022-09-09T00:32:36.950Z,14.80
2022-09-09T00:35:17.176Z,14.80
2022-09-09T00:37:55.476Z,14.80
2022-09-09T00:41:25.045Z,14.70
2022-09-09T00:44:41.849Z,14.80
2022-09-09T00:48:16.284Z,14.80
2022-09-09T00:55:23.677Z,14.70
2022-09-09T00:58:26.704Z,14.70
2022-09-09T01:01:12.684Z,14.60
2022-09-09T01:03:50.264Z,14.60
2022-09-09T01:06:24.778Z,14.50
2022-09-09T01:09:16.783Z,14.50
2022-09-09T01:12:17.736Z,14.50
2022-09-09T01:15:30.333Z,14.40
2022-09-09T01:18:26.598Z,14.40
2022-09-09T01:21:24.252Z,14.40
2022-09-09T01:24:32.049Z,14.30
2022-09-09T01:33:50.893Z,14.30
2022-09-09T01:36:30.364Z,14.30
2022-09-09T01:45:29.557Z,14.20
2022-09-09T01:48:04.186Z,14.20
2022-09-09T01:50:39.337Z,14.20
2022-09-09T01:53:10.788Z,14.20
2022-09-09T01:55:58.287Z,14.10
2022-09-09T02:03:47.724Z,14.20
2022-09-09T02:06:31.125Z,14.20
2022-09-09T02:09:10.373Z,14.10
2022-09-09T02:11:44.197Z,14.20
2022-09-09T02:14:30.315Z,14.10
2022-09-09T02:17:12.239Z,14.10
2022-09-09T02:19:53.071Z,14.20
2022-09-09T02:22:27.264Z,14.10
2022-09-09T02:25:13.283Z,14.10
2022-09-09T02:28:05.699Z,14.10
2022-09-09T02:30:46.019Z,14.10
2022-09-09T02:33:17.693Z,14.10
2022-09-09T02:35:51.008Z,14.00
2022-09-09T02:38:34.928Z,14.00
2022-09-09T02:41:05.102Z,14.10
2022-09-09T02:43:35.774Z,14.00
2022-09-09T02:46:12.886Z,14.00
2022-09-09T02:48:52.073Z,14.10
2022-09-09T02:51:37.481Z,14.10
2022-09-09T03:09:23.283Z,14.40
2022-09-09T03:11:52.276Z,14.40
2022-09-09T03:14:32.555Z,14.40
2022-09-09T03:17:33.193Z,14.30
2022-09-09T03:20:02.457Z,14.40
2022-09-09T03:22:31.753Z,14.50
2022-09-09T03:25:03.106Z,14.50
2022-09-09T03:27:32.121Z,14.50
2022-09-09T03:30:05.140Z,14.50
2022-09-09T03:32:36.486Z,14.50
2022-09-09T03:35:05.385Z,14.50
2022-09-09T03:37:33.891Z,14.50
2022-09-09T03:40:04.547Z,14.40
2022-09-09T03:42:39.225Z,14.40
2022-09-09T03:45:10.337Z,14.40
2022-09-09T03:47:39.058Z,14.30
2022-09-09T03:50:10.692Z,14.20
2022-09-09T03:52:40.542Z,14.20
2022-09-09T03:55:11.133Z,14.20
2022-09-09T03:57:39.694Z,14.10
2022-09-09T04:00:10.666Z,14.10
2022-09-09T04:02:40.486Z,14.10
2022-09-09T04:05:09.834Z,14.10
2022-09-09T04:07:38.399Z,14.00
2022-09-09T04:10:08.512Z,14.00
2022-09-09T04:12:38.546Z,14.00
2022-09-09T04:15:09.458Z,14.00
2022-09-09T04:17:38.128Z,14.00
2022-09-09T04:20:08.860Z,14.00
2022-09-09T04:22:37.273Z,14.00
2022-09-09T04:25:30.069Z,14.00
2022-09-09T04:28:00.649Z,14.00
2022-09-09T04:30:29.868Z,14.00
2022-09-09T04:32:59.301Z,14.00
2022-09-09T04:35:28.379Z,14.00
2022-09-09T04:37:56.816Z,14.00
2022-09-09T04:40:26.095Z,14.00
2022-09-09T04:42:54.731Z,14.00
2022-09-09T04:45:25.212Z,14.00
2022-09-09T04:47:53.829Z,14.10
2022-09-09T04:50:22.318Z,14.10
2022-09-09T04:53:07.939Z,14.10
2022-09-09T04:55:37.237Z,14.20
2022-09-09T04:58:07.133Z,14.20
2022-09-09T05:00:37.811Z,14.30
2022-09-09T05:03:07.133Z,14.30
2022-09-09T05:05:36.459Z,14.30
2022-09-09T05:08:07.885Z,14.40
2022-09-09T05:10:37.109Z,14.40
2022-09-09T05:13:05.786Z,14.40
2022-09-09T05:15:34.233Z,14.40
2022-09-09T05:18:04.426Z,14.50
2022-09-09T05:20:33.116Z,14.50
2022-09-09T05:23:01.856Z,14.50
2022-09-09T05:25:30.328Z,14.50
2022-09-09T05:28:00.767Z,14.60
2022-09-09T05:30:29.214Z,14.60
2022-09-09T05:33:18.303Z,14.60
2022-09-09T05:35:46.895Z,14.70
2022-09-09T05:38:15.406Z,14.70
2022-09-09T05:40:55.894Z,14.70
2022-09-09T05:43:24.413Z,14.70
2022-09-09T05:46:03.478Z,14.70
2022-09-09T05:48:34.342Z,14.80
2022-09-09T05:51:16.834Z,14.80
2022-09-09T05:53:45.811Z,14.80
2022-09-09T05:56:16.405Z,14.80
2022-09-09T05:58:45.715Z,14.90
2022-09-09T06:01:27.032Z,14.90
2022-09-09T06:03:57.562Z,14.90
2022-09-09T06:06:28.297Z,15.00
2022-09-09T06:08:58.643Z,15.10
2022-09-09T06:11:29.462Z,15.10
2022-09-09T06:13:57.982Z,15.20
2022-09-09T06:16:28.529Z,15.30
2022-09-09T06:18:59.826Z,15.30
2022-09-09T06:21:30.437Z,15.30
2022-09-09T06:24:01.473Z,15.30
2022-09-09T06:26:34.596Z,15.30
2022-09-09T06:29:05.139Z,15.40
2022-09-09T06:31:35.647Z,15.30
2022-09-09T06:34:08.519Z,15.30
2022-09-09T06:36:38.304Z,15.40
2022-09-09T06:39:14.250Z,15.40
2022-09-09T06:41:43.830Z,15.50
2022-09-09T06:44:13.667Z,15.50
2022-09-09T06:46:44.592Z,15.40
2022-09-09T06:49:14.722Z,15.50
2022-09-09T06:51:44.134Z,15.50
2022-09-09T06:54:13.670Z,15.50
2022-09-09T06:56:44.385Z,15.60
2022-09-09T06:59:13.679Z,15.70
2022-09-09T07:01:45.021Z,15.70
2022-09-09T07:04:15.752Z,15.80
2022-09-09T07:06:47.054Z,15.80
2022-09-09T07:09:17.436Z,15.80
2022-09-09T07:11:47.758Z,15.80
2022-09-09T07:14:16.543Z,15.80
2022-09-09T07:16:50.704Z,15.80
2022-09-09T07:19:20.843Z,15.90
2022-09-09T07:21:49.461Z,15.90
2022-09-09T07:24:18.145Z,16.00
2022-09-09T07:27:07.011Z,16.10
2022-09-09T07:29:35.870Z,16.30
2022-09-09T07:32:05.577Z,16.40
2022-09-09T07:34:35.535Z,16.50
2022-09-09T07:37:04.557Z,16.70
2022-09-09T07:39:33.186Z,16.80
2022-09-09T07:42:01.872Z,16.80
2022-09-09T07:44:30.462Z,16.70
2022-09-09T07:47:01.552Z,16.80
2022-09-09T07:49:32.846Z,16.80
2022-09-09T07:52:03.628Z,16.80
2022-09-09T07:54:32.952Z,16.80
2022-09-09T07:57:01.608Z,16.80
2022-09-09T07:59:31.690Z,16.80
2022-09-09T08:02:04.777Z,16.80
2022-09-09T08:04:33.405Z,16.90
2022-09-09T08:07:04.609Z,17.10
2022-09-09T08:09:34.934Z,17.10
2022-09-09T08:12:03.981Z,17.20
2022-09-09T08:14:32.539Z,17.30
2022-09-09T08:17:26.284Z,17.40
2022-09-09T08:20:08.785Z,17.50
2022-09-09T08:22:43.300Z,17.40
2022-09-09T08:25:12.045Z,17.40
2022-09-09T08:27:40.533Z,17.30
2022-09-09T08:30:10.152Z,17.10
2022-09-09T08:32:39.902Z,16.90
2022-09-09T08:35:11.373Z,16.80
2022-09-09T08:37:41.620Z,16.90
2022-09-09T08:40:20.314Z,16.90
2022-09-09T08:43:04.240Z,17.10
2022-09-09T08:45:40.572Z,17.20
2022-09-09T08:48:26.336Z,17.20
2022-09-09T08:51:03.090Z,17.10
2022-09-09T08:53:59.078Z,17.00
2022-09-09T08:56:29.761Z,16.90
2022-09-09T08:58:59.063Z,16.90
2022-09-09T09:01:43.549Z,16.90
2022-09-09T09:04:24.845Z,16.90
2022-09-09T09:07:02.275Z,17.00
2022-09-09T09:09:38.972Z,17.00
2022-09-09T09:12:18.291Z,16.90
2022-09-09T09:14:49.896Z,16.90
2022-09-09T09:17:21.518Z,17.00
2022-09-09T09:19:51.992Z,17.00
2022-09-09T09:22:23.616Z,16.90
2022-09-09T09:24:56.698Z,17.00
2022-09-09T09:27:48.783Z,17.10
2022-09-09T09:30:28.636Z,17.30
2022-09-09T09:33:02.367Z,17.40
2022-09-09T09:35:36.293Z,17.50
2022-09-09T09:41:08.651Z,17.80
2022-09-09T09:43:42.270Z,17.80
2022-09-09T09:46:24.979Z,17.90
2022-09-09T09:49:19.825Z,18.00
2022-09-09T09:51:48.795Z,18.10
2022-09-09T09:54:24.319Z,18.10
2022-09-09T09:56:54.265Z,18.20
2022-09-09T09:59:42.075Z,18.30
2022-09-09T10:02:19.365Z,18.30
2022-09-09T10:04:48.962Z,18.30
2022-09-09T10:07:22.224Z,18.40
2022-09-09T10:09:56.433Z,18.50
2022-09-09T10:12:40.632Z,18.60
2022-09-09T10:15:29.685Z,18.80
2022-09-09T10:18:08.342Z,19.10
2022-09-09T10:20:49.379Z,19.30
2022-09-09T10:23:32.229Z,19.40
2022-09-09T10:26:19.414Z,19.50
2022-09-09T10:29:08.644Z,19.70
2022-09-09T10:31:54.136Z,19.80
2022-09-09T10:34:51.318Z,19.90
2022-09-09T10:37:30.745Z,20.10
2022-09-09T10:40:14.252Z,20.10
2022-09-09T10:42:44.021Z,20.20
2022-09-09T10:45:21.662Z,20.10
2022-09-09T10:48:18.539Z,20.20
2022-09-09T10:51:01.108Z,20.20
2022-09-09T10:53:40.076Z,20.20
2022-09-09T10:56:12.057Z,20.30
2022-09-09T10:58:46.806Z,20.40
2022-09-09T11:01:25.340Z,20.50
2022-09-09T11:03:59.697Z,20.50
2022-09-09T11:06:35.213Z,20.40
2022-09-09T11:09:06.508Z,20.60
2022-09-09T11:11:45.210Z,20.60
2022-09-09T11:14:19.059Z,20.60
2022-09-09T11:16:54.726Z,20.70
2022-09-09T11:19:30.946Z,20.90
2022-09-09T11:22:01.526Z,20.90
2022-09-09T11:24:39.423Z,20.70
2022-09-09T11:27:14.555Z,20.60
2022-09-09T11:34:13.853Z,20.60
2022-09-09T11:37:08.432Z,20.60
2022-09-09T11:40:11.106Z,20.70
2022-09-09T11:42:40.357Z,20.70
2022-09-09T11:45:14.550Z,20.80
2022-09-09T11:47:56.330Z,20.90
2022-09-09T11:50:35.680Z,21.00
2022-09-09T11:53:58.555Z,20.90
2022-09-09T11:56:33.058Z,20.90
2022-09-09T11:59:04.978Z,20.90
2022-09-09T12:01:42.733Z,20.90
2022-09-09T12:04:22.329Z,20.90
2022-09-09T12:06:55.237Z,20.90
2022-09-09T12:09:36.240Z,20.90
2022-09-09T12:12:09.499Z,20.80
2022-09-09T12:14:40.716Z,20.80
2022-09-09T12:17:31.353Z,20.80
2022-09-09T12:20:08.604Z,20.80
2022-09-09T12:22:47.387Z,20.80
2022-09-09T12:25:37.572Z,21.00
2022-09-09T12:28:30.339Z,21.20
2022-09-09T12:31:09.189Z,21.30
2022-09-09T12:33:41.967Z,21.20
2022-09-09T12:36:21.962Z,21.00
2022-09-09T12:38:53.567Z,20.50
2022-09-09T12:41:34.956Z,19.40
2022-09-09T12:44:26.868Z,18.50
2022-09-09T12:46:56.852Z,17.90
2022-09-09T12:49:35.664Z,17.90
2022-09-09T12:52:08.370Z,18.00
2022-09-09T12:54:39.395Z,18.20
2022-09-09T12:57:33.237Z,18.20
2022-09-09T13:00:24.035Z,18.30
2022-09-09T13:03:02.433Z,18.20
2022-09-09T13:05:40.118Z,18.20
2022-09-09T13:08:13.355Z,18.20
2022-09-09T13:10:53.757Z,18.30
2022-09-09T13:13:34.854Z,18.30
2022-09-09T13:16:09.634Z,18.40
2022-09-09T13:18:43.413Z,18.30
2022-09-09T13:21:15.753Z,18.20
2022-09-09T13:23:51.060Z,18.00
2022-09-09T13:26:28.883Z,17.60
2022-09-09T13:29:20.243Z,17.30
2022-09-09T13:31:49.251Z,17.10
2022-09-09T13:34:34.796Z,16.90
2022-09-09T13:37:07.554Z,16.80
2022-09-09T13:39:44.996Z,16.80
2022-09-09T13:42:32.037Z,16.90
2022-09-09T13:45:07.000Z,16.90
2022-09-09T13:47:42.121Z,17.00
2022-09-09T13:50:23.536Z,17.10
2022-09-09T13:52:58.168Z,17.00
2022-09-09T13:55:33.894Z,16.90
2022-09-09T13:58:12.272Z,16.80
2022-09-09T14:00:43.309Z,16.80
2022-09-09T14:03:15.036Z,16.90
2022-09-09T14:05:44.873Z,17.00
2022-09-09T14:08:34.178Z,17.10
2022-09-09T14:11:06.006Z,17.20
2022-09-09T14:13:39.058Z,17.30
2022-09-09T14:16:17.687Z,17.40
2022-09-09T14:18:50.379Z,17.50
2022-09-09T14:21:23.092Z,17.60
2022-09-09T14:26:36.991Z,17.50
2022-09-09T14:29:13.502Z,17.40
2022-09-09T14:31:43.792Z,17.30
2022-09-09T14:34:21.472Z,17.20
2022-09-09T14:36:50.874Z,17.20
2022-09-09T14:39:25.115Z,17.20
2022-09-09T14:41:59.915Z,17.30
2022-09-09T14:44:29.154Z,17.40
2022-09-09T14:47:03.567Z,17.60
2022-09-09T14:49:32.513Z,17.70
2022-09-09T14:52:05.237Z,17.80
2022-09-09T14:54:37.549Z,17.80
2022-09-09T14:57:08.829Z,17.70
2022-09-09T14:59:42.778Z,17.70
2022-09-09T15:02:15.783Z,17.60
2022-09-09T15:04:47.859Z,17.60
2022-09-09T15:07:17.425Z,17.60
2022-09-09T15:09:46.200Z,17.60
2022-09-09T15:12:20.034Z,17.60
2022-09-09T15:14:49.458Z,17.50
2022-09-09T15:17:21.924Z,17.40
2022-09-09T15:19:51.436Z,17.30
2022-09-09T15:22:23.719Z,17.30
2022-09-09T15:24:55.099Z,17.10
2022-09-09T15:27:24.328Z,16.90
2022-09-09T15:29:53.407Z,16.60
2022-09-09T15:32:26.919Z,16.30
2022-09-09T15:34:55.713Z,16.20
2022-09-09T15:37:24.418Z,16.10
2022-09-09T15:39:53.479Z,16.10
2022-09-09T15:42:31.185Z,16.10
2022-09-09T15:45:08.060Z,16.00
2022-09-09T15:47:38.810Z,15.90
2022-09-09T15:50:14.344Z,15.80
2022-09-09T15:52:47.400Z,15.80
2022-09-09T15:55:26.905Z,15.70
2022-09-09T15:58:00.939Z,15.60
2022-09-09T16:00:34.482Z,15.60
2022-09-09T16:03:07.796Z,15.40
2022-09-09T16:05:38.583Z,15.30
2022-09-09T16:08:10.723Z,15.30
2022-09-09T16:10:50.524Z,15.20
2022-09-09T16:13:32.910Z,15.20
2022-09-09T16:16:12.918Z,15.20
2022-09-09T16:18:59.905Z,15.30
2022-09-09T16:21:38.831Z,15.20
2022-09-09T16:24:11.783Z,15.30
2022-09-09T16:26:46.858Z,15.30
2022-09-09T16:29:29.480Z,15.40
2022-09-09T16:32:06.062Z,15.40
2022-09-09T16:34:39.119Z,15.50
2022-09-09T16:37:19.688Z,15.40
2022-09-09T16:39:53.640Z,15.60
2022-09-09T16:42:24.006Z,15.60
2022-09-09T16:44:59.404Z,15.60
2022-09-09T16:47:28.888Z,15.60
2022-09-09T16:50:02.346Z,15.60
2022-09-09T16:52:33.051Z,15.60
2022-09-09T16:55:03.006Z,15.60
2022-09-09T16:57:37.063Z,15.50
2022-09-09T17:00:46.311Z,15.60
2022-09-09T17:03:18.974Z,15.60
2022-09-09T17:06:02.742Z,15.60
2022-09-09T17:08:35.856Z,15.60
2022-09-09T17:11:07.457Z,15.60
2022-09-09T17:13:37.271Z,15.50
2022-09-09T17:16:11.116Z,15.60
2022-09-09T17:18:42.813Z,15.60
2022-09-09T17:21:19.704Z,15.50
2022-09-09T17:23:55.189Z,15.50
2022-09-09T17:26:28.969Z,15.50
2022-09-09T17:29:09.406Z,15.40
2022-09-09T18:09:17.146Z,15.30
2022-09-09T18:19:40.298Z,15.40
2022-09-09T18:27:06.106Z,15.40
2022-09-09T18:29:46.966Z,15.40
2022-09-09T18:33:14.370Z,15.50
2022-09-09T18:36:36.875Z,15.40
2022-09-09T18:42:47.462Z,15.30
2022-09-09T18:45:50.604Z,15.30
2022-09-09T18:49:22.242Z,15.30
2022-09-09T18:52:09.769Z,15.30
2022-09-09T18:55:18.792Z,15.30
2022-09-09T18:58:36.139Z,15.30
2022-09-09T19:01:50.399Z,15.20
2022-09-09T19:05:14.770Z,15.40
2022-09-09T19:07:58.142Z,15.40
2022-09-09T19:14:38.060Z,15.40
2022-09-09T19:17:25.969Z,15.40
2022-09-09T19:20:35.934Z,15.40
2022-09-09T19:23:20.140Z,15.40
2022-09-09T19:25:56.190Z,15.50
2022-09-09T19:29:29.555Z,15.50
2022-09-09T19:44:15.133Z,15.60
